createdAt,value
2017-11-23T00:00:18.698Z,17.90
2017-11-23T00:02:48.636Z,17.90
2017-11-23T00:05:16.697Z,17.90
2017-11-23T00:07:45.658Z,17.90
2017-11-23T00:10:12.808Z,17.90
2017-11-23T00:12:39.961Z,17.90
2017-11-23T00:15:07.887Z,17.90
2017-11-23T00:17:35.959Z,17.80
2017-11-23T00:20:04.028Z,17.80
2017-11-23T00:22:32.100Z,17.90
2017-11-23T00:24:59.251Z,17.90
2017-11-23T00:27:26.405Z,17.90
2017-11-23T00:29:53.566Z,17.90
2017-11-23T00:32:20.716Z,17.80
2017-11-23T00:34:48.130Z,17.70
2017-11-23T00:37:16.048Z,17.80
2017-11-23T00:39:43.193Z,17.80
2017-11-23T00:42:10.357Z,17.80
2017-11-23T00:44:38.920Z,17.80
2017-11-23T00:47:06.976Z,17.70
2017-11-23T00:49:34.155Z,17.80
2017-11-23T00:52:02.115Z,17.90
2017-11-23T00:54:29.304Z,18.00
2017-11-23T00:56:56.544Z,18.10
2017-11-23T00:59:24.613Z,18.10
2017-11-23T01:01:51.796Z,18.10
2017-11-23T01:04:19.722Z,18.00
2017-11-23T01:06:46.916Z,18.00
2017-11-23T01:09:14.055Z,18.00
2017-11-23T01:11:41.995Z,18.10
2017-11-23T01:14:10.012Z,18.10
2017-11-23T01:16:37.944Z,18.10
2017-11-23T01:19:05.105Z,18.10
2017-11-23T01:21:33.799Z,18.00
2017-11-23T01:24:01.770Z,18.00
2017-11-23T01:26:28.924Z,17.90
2017-11-23T01:28:57.012Z,18.00
2017-11-23T01:31:25.772Z,18.00
2017-11-23T01:33:52.957Z,18.00
2017-11-23T01:36:20.904Z,18.00
2017-11-23T01:38:48.101Z,18.00
2017-11-23T01:41:15.243Z,18.00
2017-11-23T01:43:43.984Z,17.90
2017-11-23T01:46:11.124Z,17.90
2017-11-23T01:48:38.315Z,17.90
2017-11-23T01:51:05.463Z,18.00
2017-11-23T01:53:32.620Z,17.90
2017-11-23T01:56:00.567Z,17.90
2017-11-23T01:58:27.716Z,17.90
2017-11-23T02:00:54.897Z,17.90
2017-11-23T02:03:22.824Z,17.90
2017-11-23T02:05:49.971Z,17.90
2017-11-23T02:08:17.159Z,17.90
2017-11-23T02:10:44.308Z,17.90
2017-11-23T02:13:12.240Z,17.90
2017-11-23T02:15:39.392Z,17.90
2017-11-23T02:18:06.555Z,17.90
2017-11-23T02:20:33.713Z,17.80
2017-11-23T02:23:00.859Z,17.80
2017-11-23T02:25:28.007Z,17.90
2017-11-23T02:27:55.156Z,17.90
2017-11-23T02:30:22.305Z,17.90
2017-11-23T02:32:49.500Z,17.90
2017-11-23T02:35:17.424Z,17.80
2017-11-23T02:37:45.384Z,17.70
2017-11-23T02:40:12.540Z,17.80
2017-11-23T02:42:39.689Z,17.80
2017-11-23T02:45:06.838Z,17.90
2017-11-23T02:47:33.988Z,17.90
2017-11-23T02:50:01.142Z,17.90
2017-11-23T02:52:28.312Z,17.80
2017-11-23T02:54:55.492Z,17.70
2017-11-23T02:57:23.404Z,17.80
2017-11-23T02:59:50.584Z,17.80
2017-11-23T03:02:17.768Z,17.80
2017-11-23T03:04:45.683Z,17.80
2017-11-23T03:07:12.836Z,17.70
2017-11-23T03:09:39.981Z,17.70
2017-11-23T03:12:07.148Z,17.80
2017-11-23T03:14:35.099Z,17.90
2017-11-23T03:17:03.184Z,18.00
2017-11-23T03:19:30.332Z,18.10
2017-11-23T03:21:58.401Z,18.10
2017-11-23T03:24:25.545Z,18.10
2017-11-23T03:26:52.701Z,18.00
2017-11-23T03:29:19.851Z,18.00
2017-11-23T03:31:47.002Z,18.00
2017-11-23T03:34:14.159Z,18.00
2017-11-23T03:36:41.309Z,18.00
2017-11-23T03:39:08.464Z,18.00
2017-11-23T03:41:35.620Z,18.00
2017-11-23T03:44:02.776Z,18.00
2017-11-23T03:46:29.927Z,17.90
2017-11-23T03:48:57.850Z,17.90
2017-11-23T03:51:24.996Z,17.90
2017-11-23T03:53:52.909Z,18.00
2017-11-23T03:56:20.055Z,18.00
2017-11-23T03:58:47.204Z,18.00
2017-11-23T04:01:14.353Z,18.00
2017-11-23T04:03:42.265Z,17.90
2017-11-23T04:06:10.181Z,17.80
2017-11-23T04:08:38.232Z,17.80
2017-11-23T04:11:05.380Z,17.90
2017-11-23T04:13:32.529Z,17.90
2017-11-23T04:15:59.693Z,17.90
2017-11-23T04:18:26.840Z,17.90
2017-11-23T04:20:53.985Z,17.80
2017-11-23T04:23:21.908Z,17.80
2017-11-23T04:25:49.056Z,17.70
2017-11-23T04:28:17.023Z,17.80
2017-11-23T04:30:44.172Z,17.80
2017-11-23T04:33:11.317Z,17.80
2017-11-23T04:35:38.472Z,17.80
2017-11-23T04:38:05.620Z,17.80
2017-11-23T04:40:32.768Z,17.70
2017-11-23T04:42:59.920Z,17.70
2017-11-23T04:45:27.113Z,17.80
2017-11-23T04:47:55.030Z,17.80
2017-11-23T04:50:23.212Z,17.80
2017-11-23T04:52:50.361Z,17.80
2017-11-23T04:55:17.516Z,17.70
2017-11-23T04:57:44.664Z,17.70
2017-11-23T05:00:11.807Z,17.70
2017-11-23T05:02:38.955Z,17.90
2017-11-23T05:05:06.980Z,18.00
2017-11-23T05:07:35.901Z,18.10
2017-11-23T05:10:03.088Z,18.10
2017-11-23T05:12:30.232Z,18.10
2017-11-23T05:14:57.376Z,18.00
2017-11-23T05:17:24.522Z,17.90
2017-11-23T05:19:51.664Z,17.90
2017-11-23T05:22:19.692Z,18.00
2017-11-23T05:24:46.848Z,18.00
2017-11-23T05:27:14.762Z,18.00
2017-11-23T05:29:41.904Z,18.00
2017-11-23T05:32:09.055Z,18.00
2017-11-23T05:34:36.204Z,18.00
2017-11-23T05:37:03.352Z,18.00
2017-11-23T05:39:30.500Z,18.00
2017-11-23T05:41:57.648Z,18.00
2017-11-23T05:44:24.798Z,18.00
2017-11-23T05:46:51.952Z,17.90
2017-11-23T05:49:19.911Z,17.90
2017-11-23T05:51:48.641Z,18.00
2017-11-23T05:54:16.732Z,18.00
2017-11-23T05:56:44.669Z,18.00
2017-11-23T05:59:11.847Z,17.90
2017-11-23T06:01:39.049Z,17.90
2017-11-23T06:04:06.200Z,17.90
2017-11-23T06:06:34.283Z,17.90
2017-11-23T06:09:01.431Z,18.00
2017-11-23T06:11:29.492Z,18.10
2017-11-23T06:13:57.407Z,18.20
2017-11-23T06:16:24.560Z,18.20
2017-11-23T06:18:52.252Z,18.20
2017-11-23T06:21:19.446Z,18.20
2017-11-23T06:23:47.496Z,18.10
2017-11-23T06:26:16.204Z,18.10
2017-11-23T06:28:43.352Z,18.10
2017-11-23T06:31:10.500Z,18.10
2017-11-23T06:33:37.653Z,18.10
2017-11-23T06:36:04.804Z,18.10
2017-11-23T06:38:31.995Z,18.00
2017-11-23T06:40:59.908Z,18.00
2017-11-23T06:43:27.822Z,18.10
2017-11-23T06:45:55.735Z,18.00
2017-11-23T06:48:23.651Z,18.00
2017-11-23T06:50:50.852Z,18.00
2017-11-23T06:53:18.776Z,18.10
2017-11-23T06:55:46.691Z,18.10
2017-11-23T06:58:14.680Z,18.10
2017-11-23T07:00:42.600Z,18.00
2017-11-23T07:03:09.752Z,18.00
2017-11-23T07:05:37.700Z,18.00
2017-11-23T07:08:04.890Z,18.00
2017-11-23T07:10:32.943Z,18.00
2017-11-23T07:13:01.020Z,18.00
2017-11-23T07:15:28.174Z,18.00
2017-11-23T07:17:59.968Z,17.90
2017-11-23T07:20:27.924Z,17.90
2017-11-23T07:22:56.741Z,18.00
2017-11-23T07:25:23.937Z,18.00
2017-11-23T07:27:51.861Z,18.00
2017-11-23T07:30:18.999Z,17.90
2017-11-23T07:32:47.026Z,17.90
2017-11-23T07:35:14.168Z,17.90
2017-11-23T07:37:41.320Z,17.90
2017-11-23T07:40:08.469Z,18.00
2017-11-23T07:42:35.663Z,18.10
2017-11-23T07:45:04.379Z,18.20
2017-11-23T07:47:32.452Z,18.20
2017-11-23T07:49:59.600Z,18.20
2017-11-23T07:52:26.756Z,18.10
2017-11-23T07:54:54.831Z,18.10
2017-11-23T07:57:21.975Z,18.20
2017-11-23T07:59:49.123Z,18.10
2017-11-23T08:02:16.272Z,18.20
2017-11-23T08:04:44.239Z,18.10
2017-11-23T08:07:11.439Z,18.00
2017-11-23T08:09:38.592Z,18.10
2017-11-23T08:12:06.507Z,18.10
2017-11-23T08:14:34.420Z,18.10
2017-11-23T08:17:01.565Z,18.10
2017-11-23T08:19:28.744Z,18.00
2017-11-23T08:21:55.921Z,18.00
2017-11-23T08:24:23.840Z,17.90
2017-11-23T08:26:50.992Z,17.90
2017-11-23T08:29:18.153Z,17.90
2017-11-23T08:31:45.304Z,17.90
2017-11-23T08:34:12.460Z,17.90
2017-11-23T08:36:39.651Z,17.90
2017-11-23T08:39:07.573Z,18.00
2017-11-23T08:41:34.724Z,18.00
2017-11-23T08:44:01.887Z,18.00
2017-11-23T08:46:30.030Z,17.90
2017-11-23T08:48:57.177Z,17.90
2017-11-23T08:51:24.331Z,18.00
2017-11-23T08:53:51.487Z,18.00
2017-11-23T08:56:18.682Z,18.00
2017-11-23T08:58:45.846Z,17.90
2017-11-23T09:01:18.132Z,18.00
2017-11-23T09:03:45.286Z,18.00
2017-11-23T09:06:13.220Z,17.90
2017-11-23T09:08:41.169Z,17.90
2017-11-23T09:11:08.319Z,18.00
2017-11-23T09:13:35.474Z,18.10
2017-11-23T09:16:02.622Z,18.20
2017-11-23T09:18:30.700Z,18.20
2017-11-23T09:20:57.860Z,18.30
2017-11-23T09:23:25.048Z,18.30
2017-11-23T09:25:52.193Z,18.20
2017-11-23T09:28:20.149Z,18.20
2017-11-23T09:30:49.006Z,18.20
2017-11-23T09:33:16.203Z,18.20
2017-11-23T09:35:44.125Z,18.20
2017-11-23T09:38:11.276Z,18.20
2017-11-23T09:40:38.425Z,18.20
2017-11-23T09:43:05.575Z,18.20
2017-11-23T09:45:33.532Z,18.20
2017-11-23T09:48:01.703Z,18.20
2017-11-23T09:50:29.816Z,18.20
2017-11-23T09:52:57.914Z,18.10
2017-11-23T09:55:26.773Z,18.10
2017-11-23T09:57:54.854Z,18.10
2017-11-23T10:00:22.048Z,18.20
2017-11-23T10:02:49.205Z,18.20
2017-11-23T10:05:16.587Z,18.20
2017-11-23T10:07:43.737Z,18.10
2017-11-23T10:10:10.885Z,18.10
2017-11-23T10:12:38.813Z,18.10
2017-11-23T10:15:06.728Z,18.10
2017-11-23T10:17:34.671Z,18.10
2017-11-23T10:20:01.830Z,18.10
2017-11-23T10:22:29.820Z,18.10
2017-11-23T10:24:57.735Z,18.10
2017-11-23T10:27:25.655Z,18.10
2017-11-23T10:29:52.844Z,18.10
2017-11-23T10:32:21.578Z,18.10
2017-11-23T10:34:48.735Z,18.10
2017-11-23T10:37:16.715Z,18.10
2017-11-23T10:39:43.869Z,18.10
2017-11-23T10:42:11.963Z,18.10
2017-11-23T10:44:39.116Z,18.10
2017-11-23T10:47:07.186Z,18.20
2017-11-23T10:49:34.332Z,18.20
2017-11-23T10:52:02.275Z,18.30
2017-11-23T10:54:30.332Z,18.40
2017-11-23T10:56:58.288Z,18.40
2017-11-23T10:59:25.475Z,18.40
2017-11-23T11:01:53.556Z,18.40
2017-11-23T11:04:20.712Z,18.40
2017-11-23T11:06:48.712Z,18.40
2017-11-23T11:09:16.629Z,18.40
2017-11-23T11:11:44.547Z,18.40
2017-11-23T11:14:13.368Z,18.30
2017-11-23T11:16:41.424Z,18.30
2017-11-23T11:19:10.301Z,18.30
2017-11-23T11:21:38.265Z,18.30
2017-11-23T11:24:05.424Z,18.30
2017-11-23T11:26:34.245Z,18.30
2017-11-23T11:29:01.392Z,18.30
2017-11-23T11:31:28.578Z,18.30
2017-11-23T11:33:56.492Z,18.20
2017-11-23T11:36:24.409Z,18.20
2017-11-23T11:38:51.987Z,18.20
2017-11-23T11:41:19.185Z,18.30
2017-11-23T11:43:46.344Z,18.30
2017-11-23T11:46:13.493Z,18.30
2017-11-23T11:48:41.478Z,18.30
2017-11-23T11:51:08.667Z,18.20
2017-11-23T11:53:35.813Z,18.20
2017-11-23T11:56:04.477Z,18.20
2017-11-23T11:58:31.633Z,18.20
2017-11-23T12:00:58.825Z,18.20
2017-11-23T12:03:27.511Z,18.20
2017-11-23T12:05:55.431Z,18.20
2017-11-23T12:27:54.208Z,18.10
2017-11-23T12:30:22.294Z,18.10
2017-11-23T12:32:50.444Z,18.10
2017-11-23T12:35:18.496Z,18.20
2017-11-23T12:37:46.633Z,18.20
2017-11-23T12:40:14.727Z,18.10
2017-11-23T12:42:42.776Z,18.10
2017-11-23T12:45:11.588Z,18.20
2017-11-23T12:47:39.685Z,18.20
2017-11-23T12:50:07.758Z,18.20
2017-11-23T12:52:35.885Z,18.20
2017-11-23T12:55:04.752Z,18.10
2017-11-23T12:57:31.896Z,18.10
2017-11-23T12:59:59.077Z,18.20
2017-11-23T13:02:26.997Z,18.40
2017-11-23T13:04:54.953Z,18.40
2017-11-23T13:07:22.115Z,18.40
2017-11-23T13:09:50.085Z,18.40
2017-11-23T13:12:17.232Z,18.40
2017-11-23T13:14:44.407Z,18.40
2017-11-23T13:17:11.564Z,18.40
2017-11-23T13:19:38.751Z,18.40
2017-11-23T13:22:06.668Z,18.40
2017-11-23T13:24:34.624Z,18.40
2017-11-23T13:27:01.782Z,18.40
2017-11-23T13:29:28.941Z,18.40
2017-11-23T13:31:56.089Z,18.30
2017-11-23T13:34:23.240Z,18.40
2017-11-23T13:36:50.394Z,18.40
2017-11-23T13:39:17.544Z,18.40
2017-11-23T13:41:44.697Z,18.40
2017-11-23T13:44:12.616Z,18.30
2017-11-23T13:46:40.537Z,18.30
2017-11-23T13:49:07.690Z,18.30
2017-11-23T13:51:34.847Z,18.30
2017-11-23T13:54:02.005Z,18.30
2017-11-23T13:56:29.160Z,18.30
2017-11-23T13:58:56.307Z,18.30
2017-11-23T14:01:23.453Z,18.30
2017-11-23T14:03:50.652Z,18.30
2017-11-23T14:06:17.799Z,18.30
2017-11-23T14:08:44.952Z,18.30
2017-11-23T14:11:12.106Z,18.30
2017-11-23T14:13:40.054Z,18.30
2017-11-23T14:16:07.988Z,18.30
2017-11-23T14:18:36.060Z,18.30
2017-11-23T14:21:03.205Z,18.20
2017-11-23T14:23:31.136Z,18.20
2017-11-23T14:25:58.324Z,18.30
2017-11-23T14:28:25.477Z,18.30
2017-11-23T14:30:53.405Z,18.30
2017-11-23T14:33:21.477Z,18.30
2017-11-23T14:35:48.628Z,18.30
2017-11-23T14:38:15.813Z,18.20
2017-11-23T14:40:43.757Z,18.20
2017-11-23T14:43:10.908Z,18.30
2017-11-23T14:45:38.092Z,18.30
2017-11-23T14:48:06.144Z,18.30
2017-11-23T14:50:33.316Z,18.20
2017-11-23T14:53:01.447Z,18.20
2017-11-23T14:55:29.362Z,18.30
2017-11-23T14:57:57.296Z,18.30
2017-11-23T15:00:24.448Z,18.30
2017-11-23T15:02:52.524Z,18.30
2017-11-23T15:05:19.675Z,18.30
2017-11-23T15:07:46.820Z,18.20
2017-11-23T15:10:14.005Z,18.20
2017-11-23T15:12:41.157Z,18.20
2017-11-23T15:15:09.076Z,18.30
2017-11-23T15:17:37.892Z,18.50
2017-11-23T15:20:05.933Z,18.40
2017-11-23T15:22:34.752Z,18.50
2017-11-23T15:25:02.824Z,18.50
2017-11-23T15:27:30.884Z,18.50
2017-11-23T15:29:58.952Z,18.50
2017-11-23T15:32:27.048Z,18.50
2017-11-23T15:34:55.109Z,18.50
2017-11-23T15:37:23.216Z,18.50
2017-11-23T15:39:51.275Z,18.50
2017-11-23T15:42:19.333Z,18.50
2017-11-23T15:44:46.555Z,18.50
2017-11-23T15:47:14.472Z,18.40
2017-11-23T15:49:41.627Z,18.40
2017-11-23T15:52:09.701Z,18.40
2017-11-23T15:54:37.836Z,18.40
2017-11-23T15:57:05.896Z,18.50
2017-11-23T15:59:33.812Z,18.40
2017-11-23T16:02:01.865Z,18.40
2017-11-23T16:04:29.023Z,18.40
2017-11-23T16:06:56.992Z,18.40
2017-11-23T16:09:24.940Z,18.40
2017-11-23T16:11:52.578Z,18.40
2017-11-23T16:14:20.541Z,18.40
2017-11-23T16:16:48.639Z,18.40
2017-11-23T16:19:17.473Z,18.30
2017-11-23T16:21:45.544Z,18.30
2017-11-23T16:24:13.609Z,18.40
2017-11-23T16:26:41.722Z,18.40
2017-11-23T16:29:10.620Z,18.40
2017-11-23T16:31:39.433Z,18.40
2017-11-23T16:34:07.492Z,18.30
2017-11-23T16:36:51.900Z,18.30
2017-11-23T16:39:23.721Z,18.30
2017-11-23T16:42:05.749Z,18.30
2017-11-23T16:44:38.605Z,18.40
2017-11-23T16:47:21.412Z,18.40
2017-11-23T16:49:55.023Z,18.30
2017-11-23T16:52:37.824Z,18.30
2017-11-23T16:55:11.410Z,18.30
2017-11-23T16:57:44.375Z,18.30
2017-11-23T17:00:27.189Z,18.30
2017-11-23T17:03:00.101Z,18.30
2017-11-23T17:05:33.153Z,18.30
2017-11-23T17:08:06.021Z,18.30
2017-11-23T17:10:39.773Z,18.40
2017-11-23T17:13:12.648Z,18.40
2017-11-23T17:15:55.527Z,18.50
2017-11-23T17:18:23.443Z,18.60
2017-11-23T17:20:50.597Z,18.60
2017-11-23T17:23:17.744Z,18.60
2017-11-23T17:25:44.930Z,18.50
2017-11-23T17:28:12.850Z,18.60
2017-11-23T17:30:40.768Z,18.60
2017-11-23T17:33:08.692Z,18.60
2017-11-23T17:35:35.840Z,18.60
2017-11-23T17:38:02.985Z,18.50
2017-11-23T17:40:30.133Z,18.50
2017-11-23T17:42:57.287Z,18.50
2017-11-23T17:45:24.472Z,18.50
2017-11-23T17:47:52.416Z,18.50
2017-11-23T17:50:19.603Z,18.50
2017-11-23T17:52:47.521Z,18.40
2017-11-23T17:55:15.583Z,18.40
2017-11-23T17:57:42.740Z,18.40
2017-11-23T18:00:10.714Z,18.40
2017-11-23T18:02:37.868Z,18.40
2017-11-23T18:05:05.797Z,18.40
2017-11-23T18:07:33.725Z,18.40
2017-11-23T18:10:01.650Z,18.50
2017-11-23T18:12:28.808Z,18.40
2017-11-23T18:14:56.000Z,18.50
2017-11-23T18:17:23.154Z,18.60
2017-11-23T18:19:50.300Z,18.70
2017-11-23T18:22:17.459Z,18.80
2017-11-23T18:24:44.618Z,18.80
2017-11-23T18:27:11.808Z,18.90
2017-11-23T18:29:38.959Z,18.90
2017-11-23T18:32:06.145Z,19.00
2017-11-23T18:34:33.305Z,19.00
2017-11-23T18:37:00.490Z,18.90
2017-11-23T18:39:28.406Z,18.80
2017-11-23T18:41:56.632Z,18.80
2017-11-23T18:44:24.553Z,18.80
2017-11-23T18:46:51.725Z,18.70
2017-11-23T18:49:18.893Z,18.70
2017-11-23T18:51:46.077Z,18.70
2017-11-23T18:54:13.267Z,18.70
2017-11-23T18:56:40.433Z,18.60
2017-11-23T18:59:07.628Z,18.60
2017-11-23T19:01:35.680Z,18.60
2017-11-23T19:04:04.540Z,18.60
2017-11-23T19:06:32.449Z,18.60
2017-11-23T19:09:01.140Z,18.50
2017-11-23T19:11:29.063Z,18.50
2017-11-23T19:13:56.249Z,18.50
2017-11-23T19:16:24.173Z,18.60
2017-11-23T19:18:51.714Z,18.50
2017-11-23T19:21:18.870Z,18.50
2017-11-23T19:23:46.021Z,18.50
2017-11-23T19:28:46.705Z,18.50
2017-11-23T19:31:13.861Z,18.50
2017-11-23T19:33:41.048Z,18.50
2017-11-23T19:36:08.962Z,18.50
2017-11-23T19:38:36.125Z,18.50
2017-11-23T19:41:03.279Z,18.50
2017-11-23T19:43:30.438Z,18.40
2017-11-23T19:45:57.589Z,18.40
2017-11-23T19:48:24.747Z,18.40
2017-11-23T19:50:52.675Z,18.50
2017-11-23T19:53:19.889Z,18.50
2017-11-23T19:55:47.817Z,18.50
2017-11-23T20:01:07.516Z,18.40
2017-11-23T20:03:34.675Z,18.40
2017-11-23T20:06:02.643Z,18.60
2017-11-23T20:08:30.600Z,18.60
2017-11-23T20:10:57.748Z,18.60
2017-11-23T20:13:25.796Z,18.70
2017-11-23T20:15:52.958Z,18.70
2017-11-23T20:18:20.112Z,18.70
2017-11-23T20:20:47.265Z,18.70
2017-11-23T20:23:15.255Z,18.70
2017-11-23T20:25:44.097Z,18.70
2017-11-23T20:28:11.299Z,18.70
2017-11-23T20:30:39.225Z,18.60
2017-11-23T20:33:06.389Z,18.60
2017-11-23T20:35:33.540Z,18.60
2017-11-23T20:38:00.689Z,18.60
2017-11-23T20:40:27.852Z,18.60
2017-11-23T20:42:55.804Z,18.60
2017-11-23T20:45:23.849Z,18.60
2017-11-23T20:47:51.887Z,18.60
2017-11-23T20:50:19.068Z,18.60
2017-11-23T20:52:46.309Z,18.60
2017-11-23T20:55:13.469Z,18.60
2017-11-23T20:57:40.657Z,18.60
2017-11-23T21:00:07.829Z,18.50
2017-11-23T21:02:35.795Z,18.50
2017-11-23T21:05:03.751Z,18.50
2017-11-23T21:07:31.875Z,18.50
2017-11-23T21:10:00.724Z,18.50
2017-11-23T21:12:28.648Z,18.50
2017-11-23T21:14:55.836Z,18.50
2017-11-23T21:17:23.034Z,18.50
2017-11-23T21:19:50.220Z,18.50
2017-11-23T21:22:18.177Z,18.50
2017-11-23T21:24:46.295Z,18.50
2017-11-23T21:27:14.388Z,18.50
2017-11-23T21:29:42.362Z,18.40
2017-11-23T21:32:10.280Z,18.40
2017-11-23T21:34:37.440Z,18.40
2017-11-23T21:37:04.593Z,18.40
2017-11-23T21:39:32.508Z,18.50
2017-11-23T21:42:00.496Z,18.50
2017-11-23T21:44:27.653Z,18.50
2017-11-23T21:46:54.808Z,18.50
2017-11-23T21:49:21.992Z,18.40
2017-11-23T21:51:49.160Z,18.40
2017-11-23T21:54:17.140Z,18.40
2017-11-23T21:56:44.535Z,18.40
2017-11-23T21:59:11.739Z,18.40
2017-11-23T22:01:39.679Z,18.50
2017-11-23T22:04:07.601Z,18.60
2017-11-23T22:06:34.804Z,18.60
2017-11-23T22:09:01.960Z,18.70
2017-11-23T22:11:29.222Z,18.80
2017-11-23T22:13:57.166Z,18.80
2017-11-23T22:16:24.356Z,18.80
2017-11-23T22:18:52.907Z,18.70
2017-11-23T22:21:20.074Z,18.70
2017-11-23T22:23:48.059Z,18.70
2017-11-23T22:26:15.213Z,18.70
2017-11-23T22:28:42.367Z,18.70
2017-11-23T22:31:09.520Z,18.70
2017-11-23T22:33:36.731Z,18.70
2017-11-23T22:36:03.892Z,18.70
2017-11-23T22:38:31.041Z,18.70
2017-11-23T22:40:58.199Z,18.60
2017-11-23T22:43:25.353Z,18.60
2017-11-23T22:45:52.513Z,18.60
2017-11-23T22:48:19.664Z,18.60
2017-11-23T22:50:46.819Z,18.60
2017-11-23T22:53:14.018Z,18.60
2017-11-23T22:55:41.167Z,18.60
2017-11-23T22:58:08.319Z,18.60
2017-11-23T23:00:36.339Z,18.60
2017-11-23T23:03:03.491Z,18.50
2017-11-23T23:05:30.641Z,18.50
2017-11-23T23:07:57.795Z,18.50
2017-11-23T23:10:24.948Z,18.60
2017-11-23T23:12:53.015Z,18.60
2017-11-23T23:15:20.167Z,18.60
2017-11-23T23:17:47.313Z,18.50
2017-11-23T23:20:14.496Z,18.50
2017-11-23T23:22:43.341Z,18.50
2017-11-23T23:25:11.363Z,18.50
2017-11-23T23:27:39.276Z,18.50
2017-11-23T23:30:07.240Z,18.50
2017-11-23T23:32:34.408Z,18.50
2017-11-23T23:35:03.278Z,18.50
2017-11-23T23:37:30.428Z,18.40
2017-11-23T23:39:57.588Z,18.40
2017-11-23T23:42:24.749Z,18.50
2017-11-23T23:44:52.664Z,18.50
2017-11-23T23:47:20.584Z,18.50
2017-11-23T23:49:47.731Z,18.50
2017-11-23T23:52:14.914Z,18.50
2017-11-23T23:54:42.061Z,18.50
2017-11-23T23:57:09.220Z,18.40
2017-11-23T23:59:37.149Z,18.50
